Time;durP1;ratioP1;P1;durP2;ratioP2;P2;SDS_P1;SDS_P2;PMS_P1;PMS_P2;Temp;Humidity;BMP_temperature;BMP_pressure;BME280_temperature;BME280_humidity;BME280_pressure;Samples;Min_cycle;Max_cycle;Signal;HPM_P1;HPM_P2
2023/03/31 00:00:13;;;;;;;1.87;0.90;;;10.00;99.90;;;;;;5065652;28;20189;-73
2023/03/31 00:02:42;;;;;;;10.13;1.40;;;10.10;99.90;;;;;;5059609;28;20439;-73
2023/03/31 00:05:08;;;;;;;1.43;0.80;;;10.00;99.90;;;;;;5058955;28;20511;-74
2023/03/31 00:07:36;;;;;;;3.27;1.10;;;10.00;99.90;;;;;;5065776;28;20525;-73
2023/03/31 00:10:04;;;;;;;5.87;1.40;;;10.00;99.90;;;;;;5066253;28;20419;-73
2023/03/31 00:12:30;;;;;;;4.43;1.30;;;10.00;99.90;;;;;;5059453;28;20503;-73
2023/03/31 00:14:55;;;;;;;3.77;1.57;;;10.00;99.90;;;;;;5072357;28;20484;-73
2023/03/31 00:17:21;;;;;;;3.30;1.17;;;10.00;99.90;;;;;;5059760;28;20189;-73
2023/03/31 00:19:50;;;;;;;5.13;1.03;;;9.90;99.90;;;;;;5058421;28;20201;-73
2023/03/31 00:22:21;;;;;;;2.37;0.70;;;10.00;99.90;;;;;;5069024;28;20185;-73
2023/03/31 00:24:47;;;;;;;2.20;1.13;;;9.90;99.90;;;;;;5058748;28;20420;-73
2023/03/31 00:27:13;;;;;;;5.43;1.30;;;10.00;99.90;;;;;;5072477;28;20466;-73
2023/03/31 00:29:42;;;;;;;12.53;2.03;;;10.00;99.90;;;;;;5070361;28;20438;-73
2023/03/31 00:32:08;;;;;;;2.63;0.90;;;10.10;99.90;;;;;;5060060;28;20430;-74
2023/03/31 00:34:33;;;;;;;1.63;0.80;;;10.10;99.90;;;;;;5058312;28;20428;-73
2023/03/31 00:37:01;;;;;;;4.70;1.43;;;10.20;99.90;;;;;;5064292;28;20192;-74
2023/03/31 00:39:30;;;;;;;2.90;0.90;;;10.20;99.90;;;;;;5065178;28;20515;-73
2023/03/31 00:41:57;;;;;;;5.00;1.33;;;10.20;99.90;;;;;;5060849;28;20790;-73
2023/03/31 00:44:24;;;;;;;2.37;1.30;;;10.20;99.90;;;;;;5066418;28;20422;-73
2023/03/31 00:47:12;;;;;;;2.30;0.93;;;10.20;99.90;;;;;;5084894;28;20493;-73
2023/03/31 00:49:46;;;;;;;2.27;1.37;;;10.20;99.90;;;;;;5061759;28;20418;-72
2023/03/31 00:52:23;;;;;;;6.67;2.40;;;10.30;99.90;;;;;;5072755;28;20526;-73
2023/03/31 00:54:53;;;;;;;4.07;1.17;;;10.30;99.90;;;;;;5060776;28;20425;-73
2023/03/31 00:57:21;;;;;;;4.80;1.80;;;10.30;99.90;;;;;;5058345;28;20427;-73
2023/03/31 00:59:50;;;;;;;1.30;0.70;;;10.40;99.90;;;;;;5061647;28;20428;-73
2023/03/31 01:02:19;;;;;;;4.37;1.70;;;10.20;99.90;;;;;;5060068;28;20439;-73
2023/03/31 01:04:54;;;;;;;10.03;1.27;;;10.20;99.90;;;;;;5071266;28;20427;-73
2023/03/31 01:07:29;;;;;;;5.83;1.17;;;10.20;99.90;;;;;;5065948;28;20455;-73
2023/03/31 01:09:58;;;;;;;3.60;1.27;;;10.10;99.90;;;;;;5064412;28;21169;-73
2023/03/31 01:12:26;;;;;;;3.93;1.70;;;10.20;99.90;;;;;;5051382;28;20919;-73
2023/03/31 01:14:52;;;;;;;2.27;1.17;;;10.20;99.90;;;;;;5064166;28;20419;-73
2023/03/31 01:17:20;;;;;;;5.53;1.37;;;10.20;99.90;;;;;;5058905;28;20426;-72
2023/03/31 01:20:13;;;;;;;4.20;1.67;;;10.20;99.90;;;;;;5057438;28;20801;-72
2023/03/31 01:22:39;;;;;;;2.93;1.43;;;10.20;99.90;;;;;;5060409;28;20423;-72
2023/03/31 01:26:00;;;;;;;5.87;1.20;;;10.20;99.90;;;;;;5070801;28;20437;-72
2023/03/31 01:28:37;;;;;;;18.13;1.67;;;10.20;99.90;;;;;;5028681;28;20195;-71
2023/03/31 01:31:49;;;;;;;4.30;1.90;;;10.20;99.90;;;;;;5028641;28;20445;-72
2023/03/31 01:34:39;;;;;;;2.87;1.70;;;10.20;99.90;;;;;;5030802;28;20420;-72
2023/03/31 01:37:13;;;;;;;5.33;1.30;;;10.10;99.90;;;;;;5051009;28;20422;-72
2023/03/31 01:40:16;;;;;;;6.33;1.40;;;10.00;99.90;;;;;;5064022;28;20443;-72
2023/03/31 01:43:01;;;;;;;3.10;1.13;;;10.00;99.90;;;;;;5040978;28;20513;-72
2023/03/31 01:45:40;;;;;;;4.60;1.43;;;10.00;99.90;;;;;;5075781;28;20784;-72
2023/03/31 01:48:17;;;;;;;5.87;1.67;;;9.90;99.90;;;;;;5076627;28;20408;-72
2023/03/31 01:51:20;;;;;;;2.73;1.20;;;9.80;99.90;;;;;;5071523;28;20493;-72
2023/03/31 01:53:58;;;;;;;2.30;0.90;;;9.80;99.90;;;;;;5055073;28;20424;-72
2023/03/31 01:56:32;;;;;;;11.20;1.57;;;9.80;99.90;;;;;;5061888;28;20508;-71
2023/03/31 01:59:22;;;;;;;1.67;0.93;;;9.60;99.90;;;;;;5067111;28;20575;-71
2023/03/31 02:02:17;;;;;;;4.90;1.83;;;9.50;99.90;;;;;;5072706;28;20439;-72
2023/03/31 02:04:51;;;;;;;5.73;1.57;;;9.40;99.90;;;;;;5050598;28;20432;-71
2023/03/31 02:07:32;;;;;;;3.60;1.47;;;9.40;99.90;;;;;;5063784;28;20491;-71
2023/03/31 02:10:01;;;;;;;2.60;1.13;;;9.30;99.90;;;;;;5063318;28;20490;-71
2023/03/31 02:12:30;;;;;;;2.27;1.63;;;9.30;99.90;;;;;;5057161;28;20418;-71
2023/03/31 02:14:58;;;;;;;4.50;1.70;;;9.20;99.90;;;;;;5070410;28;20429;-72
2023/03/31 02:17:31;;;;;;;2.60;1.33;;;9.20;99.90;;;;;;5070353;28;20469;-71
2023/03/31 02:20:00;;;;;;;3.40;1.63;;;9.10;99.90;;;;;;5055598;28;20423;-71
2023/03/31 02:22:30;;;;;;;13.97;1.57;;;9.10;99.90;;;;;;5067750;28;20452;-71
2023/03/31 02:24:57;;;;;;;2.40;0.90;;;9.00;99.90;;;;;;5057480;28;20415;-71
2023/03/31 02:27:29;;;;;;;2.07;0.90;;;8.90;99.90;;;;;;5061004;28;20484;-71
2023/03/31 02:29:56;;;;;;;2.80;1.33;;;8.90;99.90;;;;;;5064759;28;20420;-71
2023/03/31 02:32:51;;;;;;;2.83;1.30;;;8.90;99.90;;;;;;5061914;28;20418;-71
2023/03/31 02:35:19;;;;;;;3.13;1.40;;;8.80;99.90;;;;;;5045664;28;20435;-71
2023/03/31 02:37:45;;;;;;;12.90;1.53;;;8.80;99.90;;;;;;5063761;28;20423;-71
2023/03/31 02:40:21;;;;;;;13.73;2.30;;;8.80;99.90;;;;;;5059153;28;20778;-71
2023/03/31 02:42:47;;;;;;;3.83;1.40;;;8.80;99.90;;;;;;5070192;28;20444;-71
2023/03/31 02:45:52;;;;;;;2.20;1.30;;;8.70;99.90;;;;;;5073035;28;20435;-71
2023/03/31 02:48:24;;;;;;;2.40;1.23;;;8.70;99.90;;;;;;5077504;28;20435;-71
2023/03/31 02:51:07;;;;;;;6.27;1.63;;;8.70;99.90;;;;;;5078152;28;20453;-71
2023/03/31 02:54:14;;;;;;;2.60;1.23;;;8.70;99.90;;;;;;5056945;28;20457;-72
2023/03/31 02:56:51;;;;;;;8.30;2.00;;;8.60;99.90;;;;;;5053955;28;20924;-72
2023/03/31 03:00:15;;;;;;;4.83;1.20;;;8.60;99.90;;;;;;5068150;28;20827;-71
2023/03/31 03:02:59;;;;;;;4.53;1.83;;;8.60;99.90;;;;;;5004536;28;21097;-72
2023/03/31 03:05:48;;;;;;;5.70;2.20;;;8.50;99.90;;;;;;5060495;28;21019;-72
2023/03/31 03:08:54;;;;;;;3.93;1.67;;;8.50;99.90;;;;;;5062086;28;20418;-72
2023/03/31 03:11:57;;;;;;;6.10;2.07;;;8.50;99.90;;;;;;5054096;28;20503;-71
2023/03/31 03:14:39;;;;;;;4.23;2.03;;;8.40;99.90;;;;;;5054403;28;20418;-71
2023/03/31 03:17:09;;;;;;;3.10;1.33;;;8.30;99.90;;;;;;5067471;28;20924;-71
2023/03/31 03:19:35;;;;;;;4.80;1.20;;;8.20;99.90;;;;;;5066093;28;20494;-71
2023/03/31 03:22:01;;;;;;;8.20;2.13;;;8.10;99.90;;;;;;5065446;28;20511;-71
2023/03/31 03:24:28;;;;;;;2.10;1.27;;;8.10;99.90;;;;;;5053709;28;20181;-71
2023/03/31 03:26:54;;;;;;;6.30;2.30;;;8.10;99.90;;;;;;5067205;28;20236;-71
2023/03/31 03:29:20;;;;;;;4.20;1.83;;;8.10;99.90;;;;;;5065836;28;20927;-71
2023/03/31 03:31:46;;;;;;;2.50;1.30;;;8.10;99.90;;;;;;5059780;28;20420;-71
2023/03/31 03:34:12;;;;;;;6.83;1.80;;;8.10;99.90;;;;;;5061016;28;20177;-71
2023/03/31 03:36:38;;;;;;;4.00;1.60;;;8.10;99.90;;;;;;5067202;28;20186;-71
2023/03/31 03:39:06;;;;;;;3.23;1.70;;;8.20;99.90;;;;;;5066335;28;20270;-71
2023/03/31 03:41:32;;;;;;;8.40;2.50;;;8.20;99.90;;;;;;5060249;28;20427;-71
2023/03/31 03:43:59;;;;;;;5.60;2.50;;;8.20;99.90;;;;;;5066508;28;20478;-71
2023/03/31 03:46:25;;;;;;;4.87;2.50;;;8.20;99.90;;;;;;5079352;28;20453;-71
2023/03/31 03:48:50;;;;;;;4.90;2.30;;;8.20;99.90;;;;;;5065250;28;20424;-71
2023/03/31 03:51:16;;;;;;;1.97;1.40;;;8.20;99.90;;;;;;5079736;28;20174;-71
2023/03/31 03:53:42;;;;;;;14.10;3.53;;;8.20;99.90;;;;;;5062513;28;20259;-71
2023/03/31 03:56:07;;;;;;;11.23;3.60;;;8.20;99.90;;;;;;5067040;28;20639;-71
2023/03/31 03:58:33;;;;;;;8.10;3.37;;;8.00;99.90;;;;;;5065885;28;20216;-71
2023/03/31 04:00:59;;;;;;;11.40;3.27;;;8.00;99.90;;;;;;5061062;28;20194;-71
2023/03/31 04:03:24;;;;;;;5.97;1.90;;;8.00;99.90;;;;;;5065871;28;20446;-71
2023/03/31 04:05:50;;;;;;;5.10;1.77;;;7.90;99.90;;;;;;5058546;28;20199;-71
2023/03/31 04:08:17;;;;;;;13.50;2.10;;;7.90;99.90;;;;;;5060243;28;20550;-71
2023/03/31 04:10:45;;;;;;;4.33;2.37;;;7.90;99.90;;;;;;5066614;28;20174;-71
2023/03/31 04:13:11;;;;;;;7.50;2.13;;;7.90;99.90;;;;;;5065809;28;20430;-71
2023/03/31 04:15:37;;;;;;;5.33;1.87;;;7.90;99.90;;;;;;5059728;28;20427;-71
2023/03/31 04:18:03;;;;;;;7.67;2.10;;;7.90;99.90;;;;;;5059915;28;20178;-71
2023/03/31 04:20:29;;;;;;;4.50;1.90;;;8.00;99.90;;;;;;5056441;28;20453;-71
2023/03/31 04:22:55;;;;;;;5.50;2.67;;;8.00;99.90;;;;;;5069995;28;20173;-71
2023/03/31 04:25:21;;;;;;;3.90;1.67;;;8.00;99.90;;;;;;5059805;28;20414;-71
2023/03/31 04:27:55;;;;;;;5.10;1.90;;;8.00;99.90;;;;;;5063196;28;20189;-72
2023/03/31 04:30:22;;;;;;;4.40;1.73;;;8.10;99.90;;;;;;5065088;28;20436;-72
2023/03/31 04:32:55;;;;;;;4.97;1.70;;;8.10;99.90;;;;;;5065998;28;20510;-71
2023/03/31 04:35:22;;;;;;;8.83;2.57;;;8.10;99.90;;;;;;5061801;28;20465;-71
2023/03/31 04:37:49;;;;;;;3.60;2.10;;;8.20;99.90;;;;;;5059368;28;20424;-71
2023/03/31 04:40:16;;;;;;;3.63;1.63;;;8.20;99.90;;;;;;5062959;28;20432;-71
2023/03/31 04:42:42;;;;;;;5.93;2.20;;;8.30;99.90;;;;;;5065648;28;20539;-71
2023/03/31 04:45:08;;;;;;;4.40;1.70;;;8.30;99.90;;;;;;5076483;28;20931;-71
2023/03/31 04:47:34;;;;;;;12.83;4.20;;;8.40;99.90;;;;;;5076239;28;20451;-71
2023/03/31 04:49:59;;;;;;;3.20;1.83;;;8.40;99.90;;;;;;5070332;28;20958;-71
2023/03/31 04:52:25;;;;;;;3.83;1.87;;;8.50;99.90;;;;;;5065594;28;20548;-71
2023/03/31 04:54:51;;;;;;;3.60;1.97;;;8.50;99.90;;;;;;5062445;28;20180;-71
2023/03/31 04:57:16;;;;;;;6.53;2.50;;;8.50;99.90;;;;;;5060964;28;20221;-71
2023/03/31 04:59:42;;;;;;;4.73;2.03;;;8.50;99.90;;;;;;5069286;28;20177;-71
2023/03/31 05:02:07;;;;;;;6.80;2.27;;;8.60;99.90;;;;;;5063536;28;20242;-72
2023/03/31 05:04:33;;;;;;;3.07;1.80;;;8.60;99.90;;;;;;5060851;28;20571;-72
2023/03/31 05:06:59;;;;;;;5.37;1.97;;;8.60;99.90;;;;;;5058875;28;20271;-72
2023/03/31 05:09:24;;;;;;;4.80;2.10;;;8.60;99.90;;;;;;5063072;28;20664;-72
2023/03/31 05:11:50;;;;;;;4.20;1.80;;;8.60;99.90;;;;;;5064976;28;20603;-72
2023/03/31 05:14:16;;;;;;;8.07;2.00;;;8.60;99.90;;;;;;5051697;28;20178;-73
2023/03/31 05:16:42;;;;;;;6.47;2.00;;;8.60;99.90;;;;;;5064102;28;20235;-72
2023/03/31 05:19:07;;;;;;;7.03;3.40;;;8.60;99.90;;;;;;5060530;28;20216;-72
2023/03/31 05:21:33;;;;;;;5.00;2.13;;;8.60;99.90;;;;;;5063641;28;20189;-72
2023/03/31 05:23:59;;;;;;;3.47;2.20;;;8.50;99.90;;;;;;5062930;28;20228;-73
2023/03/31 05:26:25;;;;;;;6.07;2.47;;;8.50;99.90;;;;;;5065189;28;20212;-73
2023/03/31 05:28:51;;;;;;;4.30;2.10;;;8.40;99.90;;;;;;5060970;28;20177;-73
2023/03/31 05:31:18;;;;;;;4.20;2.13;;;8.40;99.90;;;;;;5069807;28;20498;-74
2023/03/31 05:33:43;;;;;;;5.07;2.87;;;8.30;99.90;;;;;;5063427;28;20415;-75
2023/03/31 05:36:15;;;;;;;6.37;2.30;;;8.30;99.90;;;;;;5064092;28;20917;-75
2023/03/31 05:38:41;;;;;;;3.53;2.37;;;8.30;99.90;;;;;;5067603;28;20260;-76
2023/03/31 05:41:08;;;;;;;4.80;3.10;;;8.30;99.90;;;;;;5072381;28;20432;-76
2023/03/31 05:43:34;;;;;;;7.70;2.00;;;8.10;99.90;;;;;;5071880;28;20983;-75
2023/03/31 05:46:00;;;;;;;5.90;2.10;;;8.20;99.90;;;;;;5080640;28;21016;-77
2023/03/31 05:48:27;;;;;;;9.83;2.23;;;8.10;99.90;;;;;;5062637;28;20452;-73
2023/03/31 05:51:01;;;;;;;5.37;2.83;;;8.10;99.90;;;;;;5066333;28;20474;-74
2023/03/31 05:53:27;;;;;;;4.50;2.50;;;8.10;99.90;;;;;;5070525;28;20657;-73
2023/03/31 05:56:01;;;;;;;6.70;2.40;;;8.10;99.90;;;;;;5066901;28;20498;-74
2023/03/31 05:58:27;;;;;;;7.53;3.13;;;8.10;99.90;;;;;;5063247;28;20200;-74
2023/03/31 06:01:01;;;;;;;4.43;2.60;;;8.00;99.90;;;;;;5074074;28;20721;-74
2023/03/31 06:03:27;;;;;;;3.80;1.80;;;8.00;99.90;;;;;;5070529;28;20450;-74
2023/03/31 06:05:54;;;;;;;9.70;3.43;;;8.00;99.90;;;;;;5063977;28;20827;-74
2023/03/31 06:08:20;;;;;;;13.40;3.20;;;8.00;99.90;;;;;;5072322;28;20200;-74
2023/03/31 06:10:45;;;;;;;10.03;4.43;;;8.10;99.90;;;;;;5055991;28;20451;-74
2023/03/31 06:13:11;;;;;;;4.73;3.13;;;8.10;99.90;;;;;;5046723;28;20199;-74
2023/03/31 06:15:36;;;;;;;11.47;4.60;;;8.10;99.90;;;;;;5061675;28;20188;-74
2023/03/31 06:18:02;;;;;;;6.23;3.60;;;8.10;99.90;;;;;;5067168;28;20185;-74
2023/03/31 06:20:28;;;;;;;4.50;2.80;;;8.10;99.90;;;;;;5070222;28;20181;-74
2023/03/31 06:22:53;;;;;;;7.50;2.63;;;8.20;99.90;;;;;;5067787;28;20223;-74
2023/03/31 06:25:20;;;;;;;4.53;2.73;;;8.20;99.90;;;;;;5064034;28;20181;-74
2023/03/31 06:27:45;;;;;;;4.70;1.83;;;8.20;99.90;;;;;;5064471;28;20295;-74
2023/03/31 06:30:12;;;;;;;7.23;2.93;;;8.20;99.90;;;;;;5074825;28;20423;-75
2023/03/31 06:32:37;;;;;;;6.13;2.83;;;8.10;99.90;;;;;;5061608;28;20189;-75
2023/03/31 06:35:03;;;;;;;4.47;2.63;;;8.10;99.90;;;;;;5055295;28;20511;-79
2023/03/31 06:37:29;;;;;;;5.20;2.87;;;8.10;99.90;;;;;;5056158;28;20510;-80
2023/03/31 06:39:55;;;;;;;9.13;3.00;;;8.10;99.90;;;;;;5074934;28;20296;-80
2023/03/31 06:42:20;;;;;;;7.63;2.60;;;8.10;99.90;;;;;;5075935;28;20180;-81
2023/03/31 06:44:46;;;;;;;6.40;2.67;;;8.10;99.90;;;;;;5061704;28;20218;-80
2023/03/31 06:47:11;;;;;;;7.60;2.80;;;8.10;99.90;;;;;;5075943;28;20204;-79
2023/03/31 06:49:37;;;;;;;9.70;2.73;;;8.10;99.90;;;;;;5056922;28;20791;-79
2023/03/31 06:52:02;;;;;;;7.50;3.33;;;8.10;99.90;;;;;;5059656;28;20225;-78
2023/03/31 06:54:28;;;;;;;10.60;3.40;;;8.20;99.90;;;;;;5056060;28;20585;-78
2023/03/31 06:56:54;;;;;;;7.43;3.20;;;8.20;99.90;;;;;;5055415;28;20185;-79
2023/03/31 06:59:19;;;;;;;4.30;2.67;;;8.30;99.90;;;;;;5074212;28;20185;-77
2023/03/31 07:01:47;;;;;;;5.83;2.37;;;8.30;99.90;;;;;;5076470;28;20189;-77
2023/03/31 07:04:12;;;;;;;2.63;1.57;;;8.30;99.90;;;;;;5067473;28;20898;-76
2023/03/31 07:06:38;;;;;;;3.90;2.30;;;8.20;99.90;;;;;;5066819;28;20462;-77
2023/03/31 07:09:04;;;;;;;2.50;1.60;;;8.20;99.90;;;;;;5074434;28;20208;-77
2023/03/31 07:11:30;;;;;;;4.70;1.80;;;8.20;99.90;;;;;;5074081;28;20224;-77
2023/03/31 07:13:56;;;;;;;9.50;1.47;;;8.20;99.90;;;;;;5068515;28;20416;-77
2023/03/31 07:16:22;;;;;;;4.80;1.80;;;8.20;99.90;;;;;;5067585;28;20464;-76
2023/03/31 07:18:49;;;;;;;4.80;1.70;;;8.10;99.90;;;;;;5060782;28;20822;-77
2023/03/31 07:21:15;;;;;;;2.17;0.90;;;8.10;99.90;;;;;;5065472;28;20644;-76
2023/03/31 07:23:41;;;;;;;3.30;1.30;;;8.00;99.90;;;;;;5065437;28;20903;-76
2023/03/31 07:26:07;;;;;;;2.43;1.10;;;7.90;99.90;;;;;;5084383;28;20458;-76
2023/03/31 07:28:33;;;;;;;3.40;1.33;;;7.90;99.90;;;;;;5070621;28;20176;-77
2023/03/31 07:30:58;;;;;;;1.70;1.10;;;7.90;99.90;;;;;;5073463;28;20439;-77
2023/03/31 07:33:24;;;;;;;1.60;0.90;;;8.10;99.90;;;;;;5073108;28;20180;-78
2023/03/31 07:35:50;;;;;;;2.47;0.70;;;8.50;99.90;;;;;;5073330;28;20192;-77
2023/03/31 07:38:16;;;;;;;2.03;1.07;;;8.90;99.90;;;;;;5059677;28;20226;-77
2023/03/31 07:40:43;;;;;;;1.70;0.70;;;9.00;99.90;;;;;;5060784;28;20258;-76
2023/03/31 07:43:08;;;;;;;1.57;0.70;;;9.00;99.90;;;;;;5058102;28;20189;-76
2023/03/31 07:45:34;;;;;;;1.70;0.60;;;9.00;99.90;;;;;;5078419;28;20546;-75
2023/03/31 07:48:00;;;;;;;1.70;0.90;;;9.30;99.90;;;;;;5082764;28;20896;-75
2023/03/31 07:50:26;;;;;;;1.63;0.80;;;9.90;99.90;;;;;;5080845;28;20498;-75
2023/03/31 07:52:51;;;;;;;2.97;0.87;;;10.00;99.90;;;;;;5075350;28;20219;-75
2023/03/31 07:55:18;;;;;;;5.47;0.87;;;9.90;99.90;;;;;;5059844;28;20181;-75
2023/03/31 07:57:45;;;;;;;9.63;0.80;;;9.70;99.90;;;;;;5066485;28;20212;-75
2023/03/31 08:00:12;;;;;;;1.50;0.80;;;9.40;99.90;;;;;;5068333;28;20900;-74
2023/03/31 08:02:40;;;;;;;1.70;0.90;;;9.60;99.90;;;;;;5058516;28;20439;-75
2023/03/31 08:05:06;;;;;;;1.60;0.60;;;10.30;99.90;;;;;;5071798;28;20422;-75
2023/03/31 08:07:33;;;;;;;1.83;0.90;;;11.20;99.90;;;;;;5072595;28;20688;-75
2023/03/31 08:09:59;;;;;;;2.23;0.70;;;11.80;99.90;;;;;;5058932;28;20903;-75
2023/03/31 08:12:25;;;;;;;3.93;1.20;;;12.40;99.90;;;;;;5070423;28;20493;-75
2023/03/31 08:14:50;;;;;;;2.33;1.10;;;12.70;99.90;;;;;;5071454;28;20186;-73
2023/03/31 08:17:16;;;;;;;25.13;1.50;;;13.10;99.90;;;;;;5065148;28;20185;-73
2023/03/31 08:19:41;;;;;;;2.40;0.90;;;13.50;99.90;;;;;;5065752;28;20192;-73
2023/03/31 08:22:07;;;;;;;1.30;0.60;;;13.70;99.90;;;;;;5068988;28;20185;-73
2023/03/31 08:24:33;;;;;;;1.40;0.50;;;14.20;99.90;;;;;;5058065;28;20719;-73
2023/03/31 08:26:58;;;;;;;1.53;0.80;;;14.60;99.90;;;;;;5072154;28;20226;-73
2023/03/31 08:29:24;;;;;;;1.80;0.70;;;14.80;99.90;;;;;;5058609;28;20176;-73
2023/03/31 08:31:50;;;;;;;1.50;0.83;;;14.60;99.90;;;;;;5071064;28;20260;-73
2023/03/31 08:34:15;;;;;;;1.40;0.60;;;14.90;99.90;;;;;;5071034;28;20181;-73
2023/03/31 08:36:41;;;;;;;1.63;0.70;;;14.80;99.90;;;;;;5058896;28;20181;-73
2023/03/31 08:39:07;;;;;;;1.60;0.60;;;15.00;99.90;;;;;;5071531;28;20605;-73
2023/03/31 08:41:41;;;;;;;2.03;1.10;;;14.90;99.90;;;;;;5058133;28;20969;-73
2023/03/31 08:44:26;;;;;;;3.23;0.80;;;15.00;99.90;;;;;;5077822;28;20184;-73
2023/03/31 08:46:55;;;;;;;2.17;1.00;;;15.00;99.90;;;;;;5081773;28;20777;-72
2023/03/31 08:49:22;;;;;;;3.20;1.00;;;14.20;99.90;;;;;;5071445;28;20488;-72
2023/03/31 08:51:56;;;;;;;4.10;0.70;;;14.20;99.90;;;;;;5069063;28;21189;-72
2023/03/31 08:54:31;;;;;;;1.50;0.50;;;14.10;99.90;;;;;;5060143;28;20824;-72
2023/03/31 08:56:57;;;;;;;1.77;0.80;;;14.50;99.90;;;;;;5058276;28;20412;-73
2023/03/31 08:59:32;;;;;;;1.57;0.70;;;14.60;99.90;;;;;;5064880;28;20507;-73
2023/03/31 09:02:20;;;;;;;1.63;0.70;;;14.70;99.90;;;;;;5057664;28;20196;-73
2023/03/31 09:05:21;;;;;;;2.30;0.70;;;14.70;99.90;;;;;;5060520;28;20982;-73
2023/03/31 09:07:54;;;;;;;1.20;0.50;;;14.70;99.90;;;;;;5059701;28;20790;-73
2023/03/31 09:10:27;;;;;;;1.40;0.70;;;14.30;99.90;;;;;;5057690;28;20423;-73
2023/03/31 09:13:11;;;;;;;1.40;0.50;;;13.70;99.90;;;;;;5059623;28;20436;-73
2023/03/31 09:16:06;;;;;;;1.83;0.83;;;13.10;99.90;;;;;;5070799;28;20433;-73
2023/03/31 09:18:36;;;;;;;2.47;0.90;;;12.90;99.90;;;;;;5057569;28;20422;-73
2023/03/31 09:21:11;;;;;;;2.17;1.20;;;13.00;99.90;;;;;;5069998;28;20412;-73
2023/03/31 09:23:56;;;;;;;3.40;1.07;;;13.10;99.90;;;;;;5064965;28;20876;-73
2023/03/31 09:26:32;;;;;;;3.00;1.13;;;13.20;99.90;;;;;;5064208;28;20463;-73
2023/03/31 09:29:01;;;;;;;1.70;0.87;;;13.10;99.90;;;;;;5060720;28;20488;-73
2023/03/31 09:31:27;;;;;;;1.30;0.60;;;12.80;99.90;;;;;;5057215;28;20436;-73
2023/03/31 09:34:00;;;;;;;1.60;0.90;;;12.70;99.90;;;;;;5070603;28;20907;-73
2023/03/31 09:36:26;;;;;;;2.03;0.77;;;12.60;99.90;;;;;;5070389;28;20415;-72
2023/03/31 09:38:52;;;;;;;1.90;0.87;;;12.70;99.90;;;;;;5067339;28;20419;-73
2023/03/31 09:41:18;;;;;;;5.73;1.47;;;12.60;99.90;;;;;;5066123;28;20285;-73
2023/03/31 09:43:45;;;;;;;4.80;1.50;;;12.50;99.10;;;;;;5061157;28;20431;-73
2023/03/31 09:46:22;;;;;;;5.33;1.37;;;12.70;99.90;;;;;;5078192;28;20863;-73
2023/03/31 09:48:55;;;;;;;4.17;1.53;;;12.80;99.80;;;;;;5062913;28;20432;-73
2023/03/31 09:51:28;;;;;;;5.13;0.87;;;12.90;99.90;;;;;;5079733;28;20482;-73
2023/03/31 09:54:28;;;;;;;1.63;0.67;;;12.80;99.90;;;;;;5069309;28;20490;-73
2023/03/31 09:56:54;;;;;;;3.57;1.13;;;12.80;99.60;;;;;;5062394;28;20502;-72
2023/03/31 09:59:29;;;;;;;1.67;1.00;;;12.80;99.30;;;;;;5069642;28;20458;-72
2023/03/31 10:01:59;;;;;;;2.90;0.80;;;12.80;98.70;;;;;;5056279;28;20461;-73
2023/03/31 10:04:31;;;;;;;2.90;0.93;;;12.80;98.90;;;;;;5061228;28;20432;-73
2023/03/31 10:06:58;;;;;;;2.70;1.03;;;13.00;99.30;;;;;;5065304;28;20459;-72
2023/03/31 10:09:30;;;;;;;2.80;1.13;;;13.30;98.00;;;;;;5061596;28;20466;-73
2023/03/31 10:12:05;;;;;;;3.47;1.10;;;13.50;98.00;;;;;;5065714;28;20412;-72
2023/03/31 10:14:43;;;;;;;4.03;1.10;;;13.60;97.60;;;;;;5060069;28;20422;-72
2023/03/31 10:17:14;;;;;;;4.30;1.20;;;13.60;97.10;;;;;;5068756;28;20476;-72
2023/03/31 10:19:54;;;;;;;4.73;1.53;;;13.60;96.60;;;;;;5056632;28;20494;-72
2023/03/31 10:22:20;;;;;;;3.73;1.07;;;13.60;96.40;;;;;;5061958;28;20522;-72
2023/03/31 10:24:47;;;;;;;9.43;1.23;;;13.40;96.30;;;;;;5070024;28;20413;-72
2023/03/31 10:27:23;;;;;;;2.20;0.90;;;13.50;96.60;;;;;;5061741;28;20205;-72
2023/03/31 10:29:54;;;;;;;13.37;1.10;;;13.60;96.80;;;;;;5063750;28;20404;-71
2023/03/31 10:32:37;;;;;;;3.40;1.27;;;13.90;96.10;;;;;;5059268;28;20411;-71
2023/03/31 10:35:14;;;;;;;1.80;0.87;;;14.10;96.70;;;;;;5069362;28;20416;-72
2023/03/31 10:37:40;;;;;;;6.50;1.47;;;14.00;95.60;;;;;;5056333;28;20474;-72
2023/03/31 10:40:18;;;;;;;4.57;1.67;;;14.10;95.60;;;;;;5063374;28;20420;-72
2023/03/31 10:42:46;;;;;;;2.13;0.90;;;14.50;96.70;;;;;;5062927;28;20207;-71
2023/03/31 10:45:30;;;;;;;4.40;1.03;;;14.60;93.10;;;;;;5068911;28;20428;-73
2023/03/31 10:48:00;;;;;;;3.23;0.77;;;14.60;93.20;;;;;;5073196;28;20547;-72
2023/03/31 10:50:31;;;;;;;1.57;0.67;;;14.70;93.00;;;;;;5070664;28;20496;-73
2023/03/31 10:53:12;;;;;;;4.60;0.63;;;14.60;93.60;;;;;;5071459;28;20427;-73
2023/03/31 10:55:44;;;;;;;1.63;1.00;;;14.60;93.10;;;;;;5067890;28;20426;-72
2023/03/31 10:58:33;;;;;;;6.80;1.70;;;14.60;93.60;;;;;;5063241;28;20501;-73
2023/03/31 11:01:28;;;;;;;2.73;1.00;;;14.60;94.00;;;;;;5057702;28;20428;-74
2023/03/31 11:04:00;;;;;;;5.40;1.37;;;14.60;94.30;;;;;;5063925;28;20424;-73
2023/03/31 11:07:03;;;;;;;3.97;1.00;;;14.40;95.70;;;;;;5057340;28;20577;-74
2023/03/31 11:09:50;;;;;;;2.43;0.83;;;13.50;97.60;;;;;;5060886;28;20412;-73
2023/03/31 11:12:59;;;;;;;4.83;1.40;;;12.50;98.70;;;;;;5067058;28;20778;-73
2023/03/31 11:16:06;;;;;;;2.63;0.90;;;11.70;99.90;;;;;;5051927;28;20508;-72
2023/03/31 11:18:52;;;;;;;4.10;0.67;;;10.90;99.90;;;;;;5071148;28;20498;-71
2023/03/31 11:21:36;;;;;;;2.13;1.07;;;9.50;99.90;;;;;;5072898;28;20461;-72
2023/03/31 11:24:30;;;;;;;1.20;0.50;;;8.20;99.90;;;;;;5058904;28;20455;-73
2023/03/31 11:27:23;;;;;;;1.40;0.70;;;7.80;99.90;;;;;;5071675;28;20458;-72
2023/03/31 11:30:13;;;;;;;2.00;0.70;;;7.60;99.90;;;;;;5073083;28;20400;-72
2023/03/31 11:32:54;;;;;;;1.47;0.60;;;7.50;99.90;;;;;;5061178;28;20502;-72
2023/03/31 11:35:28;;;;;;;1.10;0.40;;;7.50;99.90;;;;;;5060023;28;20891;-72
2023/03/31 11:38:03;;;;;;;1.30;0.50;;;7.50;99.90;;;;;;5058110;28;20419;-72
2023/03/31 11:40:50;;;;;;;1.43;0.60;;;7.50;99.90;;;;;;5061790;28;20510;-72
2023/03/31 11:43:21;;;;;;;3.40;1.03;;;7.60;99.90;;;;;;5067539;28;20486;-72
2023/03/31 11:45:51;;;;;;;1.97;0.57;;;7.60;99.90;;;;;;5081744;28;20414;-72
2023/03/31 11:48:47;;;;;;;1.20;0.60;;;7.70;99.90;;;;;;5080556;28;20947;-72
2023/03/31 11:51:25;;;;;;;1.83;0.50;;;7.80;99.90;;;;;;5078784;28;20423;-72
2023/03/31 11:53:53;;;;;;;1.50;0.50;;;8.10;99.90;;;;;;5073061;28;20434;-72
2023/03/31 11:56:21;;;;;;;1.10;0.40;;;8.20;99.90;;;;;;5063092;28;20428;-72
2023/03/31 11:58:52;;;;;;;1.87;0.60;;;8.50;99.90;;;;;;5071922;28;20415;-73
2023/03/31 12:02:03;;;;;;;1.23;0.60;;;8.90;99.90;;;;;;5058822;28;20412;-73
2023/03/31 12:04:41;;;;;;;1.73;0.60;;;9.10;99.90;;;;;;5036266;28;20930;-72
2023/03/31 12:07:21;;;;;;;1.30;0.60;;;9.00;99.90;;;;;;5072301;28;20920;-71
2023/03/31 12:10:10;;;;;;;1.87;0.73;;;9.20;99.90;;;;;;5059739;28;20412;-72
2023/03/31 12:12:42;;;;;;;1.17;0.53;;;9.30;99.90;;;;;;5051718;28;20956;-72
2023/03/31 12:15:32;;;;;;;1.60;0.50;;;9.50;99.90;;;;;;5067505;28;20416;-72
2023/03/31 12:18:20;;;;;;;1.60;0.50;;;9.90;99.90;;;;;;5072374;28;20419;-73
2023/03/31 12:20:56;;;;;;;1.10;0.40;;;10.20;99.90;;;;;;5062759;28;20862;-73
2023/03/31 12:23:26;;;;;;;1.23;0.50;;;10.40;99.90;;;;;;5068108;28;20415;-72
2023/03/31 12:26:05;;;;;;;1.77;0.47;;;10.40;99.90;;;;;;5070960;28;20462;-72
2023/03/31 12:28:32;;;;;;;1.80;0.70;;;10.60;99.90;;;;;;5072151;28;20434;-71
2023/03/31 12:31:01;;;;;;;2.23;0.70;;;10.90;99.90;;;;;;5059652;28;20503;-71
2023/03/31 12:33:48;;;;;;;1.50;1.00;;;11.40;99.90;;;;;;5064973;28;20416;-71
2023/03/31 12:36:25;;;;;;;1.30;0.50;;;11.20;99.90;;;;;;5065412;28;20474;-72
2023/03/31 12:39:38;;;;;;;1.60;0.80;;;11.30;99.90;;;;;;5061554;28;20438;-72
2023/03/31 12:42:41;;;;;;;1.20;0.43;;;11.50;99.90;;;;;;5056671;28;20427;-72
2023/03/31 12:45:29;;;;;;;2.23;0.50;;;11.70;99.90;;;;;;5069530;28;20502;-71
2023/03/31 12:48:03;;;;;;;1.93;0.63;;;11.60;99.90;;;;;;5080977;28;20467;-73
2023/03/31 12:50:38;;;;;;;1.57;0.60;;;11.70;99.90;;;;;;5078982;28;20422;-72
2023/03/31 12:53:20;;;;;;;3.90;1.17;;;11.80;99.90;;;;;;5070742;28;20971;-72
2023/03/31 12:55:48;;;;;;;3.33;1.00;;;12.10;99.90;;;;;;5057913;28;20415;-72
2023/03/31 12:58:27;;;;;;;2.43;0.90;;;12.30;99.90;;;;;;5072169;28;20453;-72
2023/03/31 13:01:05;;;;;;;1.43;0.73;;;12.50;99.90;;;;;;5068394;28;20412;-72
2023/03/31 13:03:41;;;;;;;2.00;0.73;;;12.30;99.90;;;;;;5064431;28;20427;-72
2023/03/31 13:06:27;;;;;;;1.53;0.57;;;12.40;99.90;;;;;;5062335;28;20484;-72
2023/03/31 13:08:57;;;;;;;2.13;0.60;;;12.40;99.90;;;;;;5045632;28;20434;-72
2023/03/31 13:11:46;;;;;;;3.27;1.67;;;12.20;99.90;;;;;;5058654;28;20412;-72
2023/03/31 13:14:30;;;;;;;3.30;0.90;;;12.00;99.90;;;;;;5059285;28;20408;-73
2023/03/31 13:17:11;;;;;;;2.07;1.00;;;11.90;99.90;;;;;;5067109;28;21123;-72
2023/03/31 13:19:39;;;;;;;3.97;1.50;;;12.10;99.90;;;;;;5063504;28;20859;-72
2023/03/31 13:22:05;;;;;;;4.80;0.63;;;11.60;99.90;;;;;;5057288;28;20690;-72